createdAt,value
2017-10-13T00:02:05.073Z,3.37
2017-10-13T00:04:32.543Z,3.60
2017-10-13T00:07:00.004Z,2.63
2017-10-13T00:09:28.244Z,2.93
2017-10-13T00:11:55.704Z,3.70
2017-10-13T00:14:23.201Z,3.27
2017-10-13T00:16:51.423Z,2.40
2017-10-13T00:19:18.887Z,2.90
2017-10-13T00:21:46.359Z,3.40
2017-10-13T00:24:13.826Z,2.80
2017-10-13T00:26:41.302Z,2.67
2017-10-13T00:29:08.758Z,2.93
2017-10-13T00:31:37.011Z,3.40
2017-10-13T00:34:04.486Z,2.97
2017-10-13T00:36:31.961Z,3.47
2017-10-13T00:39:01.463Z,3.93
2017-10-13T00:41:29.724Z,3.67
2017-10-13T00:43:57.211Z,4.33
2017-10-13T00:46:26.815Z,4.93
2017-10-13T00:48:55.060Z,4.43
2017-10-13T00:51:23.176Z,5.40
2017-10-13T00:53:51.408Z,6.07
2017-10-13T00:56:19.654Z,6.00
2017-10-13T00:58:47.110Z,6.07
2017-10-13T01:01:15.428Z,5.83
2017-10-13T01:03:42.894Z,6.53
2017-10-13T01:06:10.699Z,6.70
2017-10-13T01:08:38.216Z,6.43
2017-10-13T01:11:05.707Z,7.23
2017-10-13T01:13:33.171Z,7.60
2017-10-13T01:16:00.637Z,8.60
2017-10-13T01:18:28.102Z,8.00
2017-10-13T01:20:55.569Z,9.43
2017-10-13T01:23:23.051Z,10.83
2017-10-13T01:25:51.358Z,9.20
2017-10-13T01:28:19.606Z,9.77
2017-10-13T01:30:48.105Z,8.80
2017-10-13T01:33:15.591Z,10.00
2017-10-13T01:35:43.055Z,9.13
2017-10-13T01:38:10.527Z,9.27
2017-10-13T01:40:37.995Z,8.87
2017-10-13T01:43:05.475Z,8.53
2017-10-13T01:45:32.940Z,9.37
2017-10-13T01:48:00.418Z,8.13
2017-10-13T01:50:27.879Z,8.30
2017-10-13T01:52:55.360Z,8.73
2017-10-13T01:55:22.823Z,7.37
2017-10-13T01:57:50.303Z,6.53
2017-10-13T02:00:17.763Z,7.20
2017-10-13T02:02:45.244Z,8.27
2017-10-13T02:05:12.712Z,7.53
2017-10-13T02:07:40.179Z,6.53
2017-10-13T02:10:07.652Z,6.17
2017-10-13T02:12:35.888Z,5.40
2017-10-13T02:15:03.359Z,4.97
2017-10-13T02:17:30.823Z,5.03
2017-10-13T02:19:58.298Z,5.10
2017-10-13T02:22:26.532Z,5.80
2017-10-13T02:24:54.008Z,5.00
2017-10-13T02:27:22.984Z,4.87
2017-10-13T02:29:50.450Z,5.40
2017-10-13T02:32:17.924Z,4.60
2017-10-13T02:34:45.397Z,4.30
2017-10-13T02:37:12.867Z,4.30
2017-10-13T02:39:41.111Z,4.70
2017-10-13T02:42:08.585Z,4.53
2017-10-13T02:44:36.056Z,4.47
2017-10-13T02:47:04.315Z,4.07
2017-10-13T02:49:31.790Z,4.10
2017-10-13T02:52:00.047Z,4.30
2017-10-13T02:54:27.532Z,4.10
2017-10-13T02:56:55.777Z,4.23
2017-10-13T02:59:23.255Z,3.50
2017-10-13T03:01:50.719Z,4.30
2017-10-13T03:04:18.959Z,3.73
2017-10-13T03:06:46.440Z,4.17
2017-10-13T03:09:13.918Z,3.43
2017-10-13T03:11:42.136Z,3.57
2017-10-13T03:14:09.615Z,4.10
2017-10-13T03:16:37.084Z,4.10
2017-10-13T03:19:04.573Z,4.30
2017-10-13T03:21:32.802Z,4.70
2017-10-13T03:24:00.304Z,4.13
2017-10-13T03:26:28.537Z,4.07
2017-10-13T03:28:56.004Z,3.87
2017-10-13T03:31:24.304Z,3.77
2017-10-13T03:33:52.547Z,3.60
2017-10-13T03:36:20.027Z,2.90
2017-10-13T03:38:47.491Z,2.60
2017-10-13T03:41:14.975Z,3.47
2017-10-13T03:43:43.204Z,3.80
2017-10-13T03:46:10.692Z,3.80
2017-10-13T03:48:38.923Z,4.27
2017-10-13T03:51:06.391Z,3.57
2017-10-13T03:53:33.871Z,2.70
2017-10-13T03:56:01.351Z,4.73
2017-10-13T03:58:29.576Z,3.97
2017-10-13T04:00:57.052Z,4.13
2017-10-13T04:03:24.519Z,3.67
2017-10-13T04:05:52.010Z,4.53
2017-10-13T04:08:20.268Z,4.00
2017-10-13T04:10:47.742Z,3.57
2017-10-13T04:13:15.967Z,3.93
2017-10-13T04:15:43.467Z,5.83
2017-10-13T04:18:11.713Z,3.60
2017-10-13T04:20:39.191Z,4.63
2017-10-13T04:23:06.654Z,5.30
2017-10-13T04:25:34.911Z,4.57
2017-10-13T04:28:02.388Z,3.90
2017-10-13T04:30:29.860Z,4.87
2017-10-13T04:32:58.107Z,3.60
2017-10-13T04:35:25.575Z,3.80
2017-10-13T04:37:53.056Z,4.63
2017-10-13T04:40:20.518Z,3.90
2017-10-13T04:42:47.996Z,3.57
2017-10-13T04:45:15.459Z,4.00
2017-10-13T04:47:43.703Z,3.97
2017-10-13T04:50:11.162Z,4.10
2017-10-13T04:52:38.651Z,4.17
2017-10-13T04:55:06.919Z,3.80
2017-10-13T04:57:34.407Z,4.67
2017-10-13T05:00:01.880Z,4.97
2017-10-13T05:02:29.355Z,3.93
2017-10-13T05:04:56.819Z,4.57
2017-10-13T05:07:24.323Z,3.60
2017-10-13T05:09:52.556Z,3.97
2017-10-13T05:12:20.031Z,4.90
2017-10-13T05:14:47.499Z,4.00
2017-10-13T05:17:14.987Z,4.80
2017-10-13T05:19:43.227Z,4.50
2017-10-13T05:22:10.728Z,3.80
2017-10-13T05:24:38.973Z,4.70
2017-10-13T05:27:06.439Z,3.83
2017-10-13T05:29:33.907Z,3.13
2017-10-13T05:32:02.162Z,4.23
2017-10-13T05:34:29.618Z,3.67
2017-10-13T05:36:57.100Z,3.60
2017-10-13T05:39:24.577Z,3.90
2017-10-13T05:41:52.820Z,3.97
2017-10-13T05:44:20.276Z,4.17
2017-10-13T05:46:47.757Z,4.00
2017-10-13T05:49:15.227Z,3.47
2017-10-13T05:51:43.495Z,3.90
2017-10-13T05:54:10.955Z,3.63
2017-10-13T05:56:39.189Z,3.37
2017-10-13T05:59:06.666Z,3.50
2017-10-13T06:01:34.154Z,4.60
2017-10-13T06:04:01.634Z,3.90
2017-10-13T06:06:29.116Z,3.37
2017-10-13T06:08:56.594Z,3.77
2017-10-13T06:11:24.060Z,3.40
2017-10-13T06:13:51.531Z,4.00
2017-10-13T06:16:19.008Z,4.63
2017-10-13T06:18:47.247Z,5.00
2017-10-13T06:21:14.733Z,4.80
2017-10-13T06:23:42.212Z,5.00
2017-10-13T06:26:10.445Z,3.60
2017-10-13T06:28:37.945Z,3.90
2017-10-13T06:31:06.175Z,4.50
2017-10-13T06:33:33.664Z,5.60
2017-10-13T06:36:01.121Z,5.50
2017-10-13T06:38:28.612Z,4.77
2017-10-13T06:40:56.074Z,5.30
2017-10-13T06:43:23.548Z,3.90
2017-10-13T06:45:51.019Z,4.13
2017-10-13T06:48:18.504Z,5.10
2017-10-13T06:50:46.732Z,5.07
2017-10-13T06:53:14.206Z,5.70
2017-10-13T06:55:41.691Z,5.07
2017-10-13T06:58:09.927Z,5.10
2017-10-13T07:00:37.410Z,4.10
2017-10-13T07:03:04.867Z,4.17
2017-10-13T07:05:32.340Z,5.10
2017-10-13T07:08:00.573Z,4.57
2017-10-13T07:10:28.044Z,3.43
2017-10-13T07:12:55.507Z,4.20
2017-10-13T07:15:22.976Z,4.30
2017-10-13T07:17:50.439Z,4.40
2017-10-13T07:20:17.907Z,4.50
2017-10-13T07:22:46.135Z,5.00
2017-10-13T07:25:14.806Z,4.30
2017-10-13T07:27:42.259Z,3.73
2017-10-13T07:30:09.744Z,4.80
2017-10-13T07:32:37.216Z,4.40
2017-10-13T07:35:05.469Z,3.50
2017-10-13T07:37:32.935Z,3.90
2017-10-13T07:40:00.416Z,4.63
2017-10-13T07:42:28.667Z,3.97
2017-10-13T07:44:56.145Z,4.27
2017-10-13T07:47:24.376Z,4.33
2017-10-13T07:49:51.852Z,4.10
2017-10-13T07:52:19.318Z,5.00
2017-10-13T07:54:46.805Z,3.67
2017-10-13T07:57:15.035Z,3.80
2017-10-13T07:59:42.517Z,4.50
2017-10-13T08:02:09.985Z,3.47
2017-10-13T08:04:38.244Z,4.43
2017-10-13T08:07:05.724Z,4.50
2017-10-13T08:09:33.961Z,4.70
2017-10-13T08:12:01.431Z,4.87
2017-10-13T08:14:28.893Z,4.87
2017-10-13T08:16:56.370Z,4.07
2017-10-13T08:19:24.604Z,3.53
2017-10-13T08:21:52.084Z,3.40
2017-10-13T08:24:19.550Z,3.97
2017-10-13T08:26:47.040Z,3.70
2017-10-13T08:29:15.272Z,3.80
2017-10-13T08:31:42.759Z,3.33
2017-10-13T08:34:10.992Z,3.03
2017-10-13T08:36:38.480Z,3.47
2017-10-13T08:39:05.948Z,4.73
2017-10-13T08:41:34.239Z,3.53
2017-10-13T08:44:02.484Z,3.70
2017-10-13T08:46:29.964Z,3.70
2017-10-13T08:48:58.218Z,3.50
2017-10-13T08:51:25.695Z,2.97
2017-10-13T08:53:53.944Z,3.03
2017-10-13T08:56:21.679Z,4.17
2017-10-13T08:58:49.145Z,4.23
2017-10-13T09:01:16.620Z,3.40
2017-10-13T09:03:44.089Z,4.33
2017-10-13T09:06:11.565Z,3.33
2017-10-13T09:08:40.172Z,3.90
2017-10-13T09:11:08.421Z,3.27
2017-10-13T09:13:35.900Z,2.67
2017-10-13T09:16:04.146Z,3.13
2017-10-13T09:18:31.620Z,3.43
2017-10-13T09:20:59.083Z,3.63
2017-10-13T09:23:27.327Z,3.00
2017-10-13T09:25:54.920Z,3.60
2017-10-13T09:28:23.168Z,3.23
2017-10-13T09:30:50.631Z,3.60
2017-10-13T09:33:18.837Z,3.30
2017-10-13T09:35:47.067Z,3.53
2017-10-13T09:38:14.555Z,2.93
2017-10-13T09:40:42.033Z,2.80
2017-10-13T09:43:10.289Z,4.47
2017-10-13T09:45:37.750Z,2.60
2017-10-13T09:48:05.232Z,3.20
2017-10-13T09:50:33.484Z,3.40
2017-10-13T09:53:00.953Z,4.30
2017-10-13T09:55:29.222Z,3.73
2017-10-13T09:57:56.687Z,2.83
2017-10-13T10:00:25.080Z,3.00
2017-10-13T10:02:53.313Z,3.20
2017-10-13T10:05:20.791Z,3.00
2017-10-13T10:07:48.296Z,3.00
2017-10-13T10:10:15.779Z,3.60
2017-10-13T10:12:43.250Z,3.67
2017-10-13T10:15:10.728Z,3.83
2017-10-13T10:17:38.201Z,3.37
2017-10-13T10:20:06.449Z,3.20
2017-10-13T10:22:33.912Z,4.03
2017-10-13T10:25:01.391Z,4.17
2017-10-13T10:27:29.624Z,3.73
2017-10-13T10:29:57.106Z,3.77
2017-10-13T10:32:24.559Z,3.20
2017-10-13T10:34:52.053Z,3.80
2017-10-13T10:37:20.294Z,4.30
2017-10-13T10:39:47.775Z,3.40
2017-10-13T10:42:15.994Z,3.10
2017-10-13T10:44:43.472Z,4.33
2017-10-13T10:47:10.930Z,3.40
2017-10-13T10:49:38.412Z,3.87
2017-10-13T10:52:05.883Z,4.03
2017-10-13T10:54:34.138Z,4.47
2017-10-13T10:57:01.609Z,4.73
2017-10-13T10:59:29.074Z,3.80
2017-10-13T11:01:57.311Z,4.60
2017-10-13T11:04:24.791Z,3.60
2017-10-13T11:06:52.269Z,4.70
2017-10-13T11:09:20.515Z,4.00
2017-10-13T11:11:47.979Z,4.43
2017-10-13T11:14:15.452Z,4.97
2017-10-13T11:16:43.699Z,5.03
2017-10-13T11:19:11.160Z,4.43
2017-10-13T11:21:38.629Z,5.97
2017-10-13T11:24:06.095Z,5.03
2017-10-13T11:26:33.580Z,5.23
2017-10-13T11:29:01.822Z,5.87
2017-10-13T11:31:29.284Z,3.37
2017-10-13T11:33:56.746Z,4.20
2017-10-13T11:36:24.225Z,4.70
2017-10-13T11:38:52.458Z,4.83
2017-10-13T11:41:19.936Z,5.07
2017-10-13T11:43:47.396Z,5.60
2017-10-13T11:46:14.893Z,5.40
2017-10-13T11:48:42.388Z,4.93
2017-10-13T11:51:09.884Z,4.93
2017-10-13T11:53:37.344Z,5.03
2017-10-13T11:56:05.585Z,4.77
2017-10-13T11:58:33.062Z,5.23
2017-10-13T12:01:00.536Z,5.33
2017-10-13T12:03:27.999Z,5.50
2017-10-13T12:05:56.235Z,4.53
2017-10-13T12:08:23.696Z,5.10
2017-10-13T12:10:51.167Z,4.93
2017-10-13T12:13:18.632Z,5.47
2017-10-13T12:15:46.114Z,4.90
2017-10-13T12:18:14.396Z,5.43
2017-10-13T12:20:42.638Z,5.37
2017-10-13T12:23:10.102Z,4.93
2017-10-13T12:25:38.471Z,5.30
2017-10-13T12:28:05.952Z,5.47
2017-10-13T12:30:33.425Z,5.00
2017-10-13T12:33:01.822Z,4.67
2017-10-13T12:35:29.331Z,5.80
2017-10-13T12:37:56.809Z,4.93
2017-10-13T12:40:24.292Z,5.10
2017-10-13T12:42:52.524Z,4.70
2017-10-13T12:45:19.988Z,5.20
2017-10-13T12:47:47.456Z,5.63
2017-10-13T12:50:14.952Z,4.60
2017-10-13T12:52:42.419Z,4.87
2017-10-13T12:55:09.900Z,4.90
2017-10-13T12:57:37.377Z,4.73
2017-10-13T13:00:04.834Z,4.97
2017-10-13T13:02:32.315Z,5.03
2017-10-13T13:05:00.544Z,4.70
2017-10-13T13:07:28.031Z,4.33
2017-10-13T13:09:55.478Z,4.40
2017-10-13T13:12:22.999Z,5.67
2017-10-13T13:14:50.473Z,5.07
2017-10-13T13:17:17.943Z,4.73
2017-10-13T13:19:45.416Z,6.53
2017-10-13T13:22:12.888Z,5.80
2017-10-13T13:24:40.378Z,5.97
2017-10-13T13:27:07.844Z,6.53
2017-10-13T13:29:35.316Z,5.63
2017-10-13T13:32:02.795Z,4.80
2017-10-13T13:34:30.264Z,5.53
2017-10-13T13:36:57.736Z,6.13
2017-10-13T13:39:25.217Z,6.00
2017-10-13T13:41:53.029Z,6.40
2017-10-13T13:44:20.495Z,5.50
2017-10-13T13:46:47.957Z,6.50
2017-10-13T13:49:15.441Z,6.03
2017-10-13T13:51:42.969Z,5.20
2017-10-13T13:54:10.431Z,5.30
2017-10-13T13:56:37.933Z,5.63
2017-10-13T13:59:05.407Z,5.97
2017-10-13T14:01:33.631Z,5.80
2017-10-13T14:04:01.108Z,6.47
2017-10-13T14:06:28.568Z,6.23
2017-10-13T14:08:56.177Z,5.80
2017-10-13T14:11:24.443Z,5.47
2017-10-13T14:13:53.091Z,6.30
2017-10-13T14:16:20.551Z,6.13
2017-10-13T14:18:48.059Z,6.80
2017-10-13T14:21:16.288Z,6.50
2017-10-13T14:23:43.795Z,6.60
2017-10-13T14:26:11.949Z,6.07
2017-10-13T14:28:40.237Z,7.23
2017-10-13T14:31:08.477Z,7.70
2017-10-13T14:33:35.955Z,7.97
2017-10-13T14:36:03.439Z,8.30
2017-10-13T14:38:31.685Z,7.97
2017-10-13T14:40:59.151Z,7.67
2017-10-13T14:43:26.644Z,7.03
2017-10-13T14:45:54.114Z,6.43
2017-10-13T14:48:22.347Z,7.83
2017-10-13T14:50:50.592Z,7.20
2017-10-13T14:53:18.056Z,8.07
2017-10-13T14:55:45.528Z,7.77
2017-10-13T14:58:12.993Z,6.83
2017-10-13T15:00:41.243Z,6.70
2017-10-13T15:03:08.703Z,7.97
2017-10-13T15:05:36.188Z,8.60
2017-10-13T15:08:04.423Z,6.87
2017-10-13T15:10:31.892Z,7.10
2017-10-13T15:12:59.372Z,8.00
2017-10-13T15:15:26.844Z,8.27
2017-10-13T15:17:55.075Z,7.80
2017-10-13T15:20:22.538Z,7.17
2017-10-13T15:22:50.019Z,6.63
2017-10-13T15:25:23.128Z,6.47
2017-10-13T15:27:57.066Z,7.10
2017-10-13T15:30:30.281Z,6.80
2017-10-13T15:33:03.585Z,5.93
2017-10-13T15:35:36.776Z,6.80
2017-10-13T15:38:09.804Z,6.30
2017-10-13T15:40:43.660Z,6.93
2017-10-13T15:43:16.895Z,6.00
2017-10-13T15:45:51.895Z,8.03
2017-10-13T15:48:25.941Z,7.40
2017-10-13T15:50:59.227Z,7.10
2017-10-13T15:53:26.683Z,7.90
2017-10-13T15:55:54.183Z,7.77
2017-10-13T15:58:22.433Z,7.03
2017-10-13T16:00:49.897Z,7.43
2017-10-13T16:03:17.380Z,7.97
2017-10-13T16:05:45.609Z,8.00
2017-10-13T16:08:13.080Z,7.80
2017-10-13T16:10:40.553Z,7.30
2017-10-13T16:13:08.806Z,7.60
2017-10-13T16:15:36.280Z,8.03
2017-10-13T16:18:03.792Z,7.63
2017-10-13T16:20:31.262Z,7.87
2017-10-13T16:22:58.754Z,7.80
2017-10-13T16:25:26.218Z,8.00
2017-10-13T16:27:53.700Z,8.00
2017-10-13T16:30:21.193Z,8.60
2017-10-13T16:32:48.678Z,8.18
2017-10-13T16:35:16.145Z,8.43
2017-10-13T16:37:43.648Z,8.00
2017-10-13T16:40:11.115Z,7.13
2017-10-13T16:42:38.575Z,8.47
2017-10-13T16:45:06.058Z,7.93
2017-10-13T16:47:33.526Z,7.90
2017-10-13T16:50:01.763Z,8.23
2017-10-13T16:52:29.230Z,7.83
2017-10-13T16:54:56.707Z,9.00
2017-10-13T16:57:24.219Z,7.57
2017-10-13T16:59:51.707Z,8.00
2017-10-13T17:02:19.176Z,8.10
2017-10-13T17:04:47.428Z,7.83
2017-10-13T17:07:14.935Z,8.03
2017-10-13T17:09:43.176Z,8.07
2017-10-13T17:12:10.648Z,10.03
2017-10-13T17:14:38.123Z,10.23
2017-10-13T17:17:06.366Z,10.37
2017-10-13T17:19:34.974Z,9.60
2017-10-13T17:22:03.219Z,9.50
2017-10-13T17:24:30.694Z,10.13
2017-10-13T17:26:58.929Z,9.90
2017-10-13T17:29:26.415Z,10.50
2017-10-13T17:31:53.876Z,9.43
2017-10-13T17:34:21.352Z,8.70
2017-10-13T17:36:48.820Z,7.77
2017-10-13T17:39:17.065Z,8.60
2017-10-13T17:41:44.535Z,7.87
2017-10-13T17:44:12.002Z,9.23
2017-10-13T17:46:39.479Z,9.00
2017-10-13T17:49:07.712Z,8.90
2017-10-13T17:51:35.200Z,9.97
2017-10-13T17:54:02.666Z,9.43
2017-10-13T17:56:30.135Z,8.83
2017-10-13T17:58:58.384Z,8.50
2017-10-13T18:01:25.855Z,9.30
2017-10-13T18:03:54.108Z,10.87
2017-10-13T18:06:21.578Z,11.33
2017-10-13T18:08:49.056Z,10.23
2017-10-13T18:11:17.309Z,10.33
2017-10-13T18:13:44.791Z,9.53
2017-10-13T18:16:12.258Z,10.73
2017-10-13T18:18:40.497Z,9.37
2017-10-13T18:21:07.971Z,10.07
2017-10-13T18:23:35.457Z,10.17
2017-10-13T18:26:03.699Z,11.27
2017-10-13T18:28:31.178Z,10.20
2017-10-13T18:30:59.423Z,9.93
2017-10-13T18:33:26.886Z,9.03
2017-10-13T18:35:54.368Z,9.93
2017-10-13T18:38:22.604Z,9.30
2017-10-13T18:40:50.089Z,9.63
2017-10-13T18:43:17.549Z,8.70
2017-10-13T18:45:45.798Z,7.90
2017-10-13T18:48:13.284Z,8.70
2017-10-13T18:50:40.751Z,9.30
2017-10-13T18:53:08.244Z,7.93
2017-10-13T18:55:35.721Z,9.90
2017-10-13T18:58:03.195Z,8.90
2017-10-13T19:00:31.434Z,9.50
2017-10-13T19:02:58.904Z,8.53
2017-10-13T19:05:26.379Z,8.97
2017-10-13T19:07:53.855Z,8.87
2017-10-13T19:10:21.327Z,8.17
2017-10-13T19:12:48.799Z,8.83
2017-10-13T19:15:16.250Z,7.80
2017-10-13T19:17:43.723Z,9.43
2017-10-13T19:20:11.962Z,8.53
2017-10-13T19:22:39.439Z,8.70
2017-10-13T19:25:07.683Z,8.17
2017-10-13T19:27:35.152Z,9.50
2017-10-13T19:30:02.624Z,8.40
2017-10-13T19:32:30.862Z,9.20
2017-10-13T19:34:58.327Z,8.73
2017-10-13T19:37:25.805Z,8.10
2017-10-13T19:39:53.281Z,9.00
2017-10-13T19:42:20.755Z,8.40
2017-10-13T19:44:48.986Z,9.00
2017-10-13T19:47:16.476Z,8.50
2017-10-13T19:49:43.952Z,8.33
2017-10-13T19:52:12.195Z,8.80
2017-10-13T19:54:39.656Z,8.40
2017-10-13T19:57:07.133Z,9.27
2017-10-13T19:59:34.657Z,7.70
2017-10-13T20:02:02.129Z,8.00
2017-10-13T20:04:29.768Z,8.53
2017-10-13T20:06:57.266Z,8.20
2017-10-13T20:09:24.739Z,9.60
2017-10-13T20:11:52.984Z,10.67
2017-10-13T20:14:20.455Z,10.50
2017-10-13T20:16:47.938Z,11.17
2017-10-13T20:19:16.173Z,9.87
2017-10-13T20:21:43.670Z,10.10
2017-10-13T20:24:11.905Z,9.43
2017-10-13T20:26:39.390Z,9.43
2017-10-13T20:29:06.897Z,8.63
2017-10-13T20:31:34.406Z,9.10
2017-10-13T20:34:01.872Z,8.77
2017-10-13T20:36:29.348Z,8.30
2017-10-13T20:38:56.836Z,8.87
2017-10-13T20:41:24.307Z,8.80
2017-10-13T20:43:52.539Z,8.90
2017-10-13T20:46:20.017Z,10.90
2017-10-13T20:48:47.504Z,10.93
2017-10-13T20:51:15.744Z,10.70
2017-10-13T20:53:43.221Z,10.60
2017-10-13T20:56:10.680Z,9.97
2017-10-13T20:58:38.164Z,10.30
2017-10-13T21:01:06.399Z,11.03
2017-10-13T21:03:33.889Z,11.40
2017-10-13T21:06:02.124Z,11.27
2017-10-13T21:08:30.367Z,11.00
2017-10-13T21:10:57.841Z,12.83
2017-10-13T21:13:25.330Z,12.80
2017-10-13T21:15:52.808Z,11.43
2017-10-13T21:18:20.284Z,11.90
2017-10-13T21:20:48.537Z,11.00
2017-10-13T21:23:15.998Z,11.50
2017-10-13T21:25:43.491Z,10.73
2017-10-13T21:28:10.962Z,10.90
2017-10-13T21:30:38.445Z,13.30
2017-10-13T21:33:05.926Z,12.30
2017-10-13T21:35:33.401Z,12.83
2017-10-13T21:38:01.630Z,13.63
2017-10-13T21:40:29.132Z,15.95
2017-10-13T21:42:56.603Z,15.10
2017-10-13T21:45:24.881Z,15.10
2017-10-13T21:47:53.111Z,15.50
2017-10-13T21:50:20.589Z,13.60
2017-10-13T21:52:48.064Z,14.23
2017-10-13T21:55:16.325Z,13.83
2017-10-13T21:57:43.795Z,9.80
2017-10-13T22:00:11.267Z,11.00
2017-10-13T22:02:40.763Z,11.70
2017-10-13T22:05:09.025Z,15.47
2017-10-13T22:07:36.496Z,16.13
2017-10-13T22:10:04.001Z,13.00
2017-10-13T22:12:31.526Z,12.97
2017-10-13T22:14:59.769Z,11.37
2017-10-13T22:17:27.240Z,12.37
2017-10-13T22:19:54.731Z,11.37
2017-10-13T22:22:22.207Z,11.67
2017-10-13T22:24:49.677Z,12.57
2017-10-13T22:27:17.161Z,12.20
2017-10-13T22:29:44.658Z,11.10
2017-10-13T22:32:12.908Z,13.00
2017-10-13T22:34:40.380Z,13.07
2017-10-13T22:37:07.880Z,13.37
2017-10-13T22:39:35.349Z,11.83
2017-10-13T22:42:02.823Z,11.20
2017-10-13T22:44:31.088Z,13.30
2017-10-13T22:46:58.559Z,13.27
2017-10-13T22:49:26.040Z,13.30
2017-10-13T22:51:53.529Z,13.20
2017-10-13T22:54:21.024Z,14.00
2017-10-13T22:56:48.504Z,13.10
2017-10-13T22:59:15.977Z,13.90
2017-10-13T23:01:43.451Z,12.60
2017-10-13T23:04:11.685Z,13.67
2017-10-13T23:06:39.156Z,15.20
2017-10-13T23:09:06.625Z,17.17
2017-10-13T23:11:34.106Z,16.27
2017-10-13T23:14:02.353Z,17.67
2017-10-13T23:16:29.864Z,18.70
2017-10-13T23:18:57.340Z,19.47
2017-10-13T23:21:24.805Z,18.07
2017-10-13T23:23:52.311Z,17.00
2017-10-13T23:26:20.547Z,17.90
2017-10-13T23:28:48.041Z,17.83
2017-10-13T23:31:16.279Z,17.10
2017-10-13T23:33:44.528Z,16.60
2017-10-13T23:36:12.004Z,14.90
2017-10-13T23:38:39.478Z,16.80
2017-10-13T23:41:06.948Z,15.80
2017-10-13T23:43:45.961Z,17.00
2017-10-13T23:46:13.839Z,16.80
2017-10-13T23:48:41.325Z,15.43
2017-10-13T23:51:08.811Z,15.47
2017-10-13T23:53:36.281Z,16.00
2017-10-13T23:56:04.518Z,13.30
2017-10-13T23:58:32.017Z,13.60
